Time;durP1;ratioP1;P1;durP2;ratioP2;P2;SDS_P1;SDS_P2;PMS_P1;PMS_P2;Temp;Humidity;BMP_temperature;BMP_pressure;BME280_temperature;BME280_humidity;BME280_pressure;Samples;Min_cycle;Max_cycle;Signal;HPM_P1;HPM_P2
2023/11/26 00:00:22;;;;;;;17.00;5.73;;;5.60;91.80;;;;;;5112882;28;20412;-70
2023/11/26 00:02:47;;;;;;;17.10;6.22;;;5.70;86.30;;;;;;5112724;28;20396;-69
2023/11/26 00:05:13;;;;;;;18.63;5.85;;;5.70;85.00;;;;;;5113004;28;20380;-69
2023/11/26 00:07:38;;;;;;;15.00;5.82;;;5.70;84.10;;;;;;5112481;28;20506;-69
2023/11/26 00:10:04;;;;;;;25.70;7.88;;;5.70;83.90;;;;;;5112743;28;20437;-70
2023/11/26 00:12:30;;;;;;;27.17;9.70;;;5.40;87.70;;;;;;5094110;28;20384;-70
2023/11/26 00:14:55;;;;;;;18.45;7.32;;;5.20;95.10;;;;;;5112275;28;20902;-69
2023/11/26 00:17:21;;;;;;;15.40;7.20;;;5.10;98.80;;;;;;5112370;28;20388;-69
2023/11/26 00:19:47;;;;;;;15.27;5.80;;;5.10;99.90;;;;;;5112307;28;20377;-70
2023/11/26 00:22:12;;;;;;;15.75;5.40;;;5.50;96.40;;;;;;5112117;28;20427;-70
2023/11/26 00:24:38;;;;;;;13.40;5.80;;;5.80;85.10;;;;;;5112437;28;20436;-70
2023/11/26 00:27:04;;;;;;;13.90;5.67;;;5.50;87.30;;;;;;5111814;28;20851;-70
2023/11/26 00:29:32;;;;;;;16.50;6.85;;;5.70;87.40;;;;;;5112308;28;20384;-69
2023/11/26 00:31:57;;;;;;;15.70;6.10;;;5.50;86.70;;;;;;5111854;28;20384;-70
2023/11/26 00:34:23;;;;;;;13.15;5.30;;;5.30;92.40;;;;;;5111968;28;20963;-70
2023/11/26 00:36:48;;;;;;;15.35;5.72;;;5.70;90.70;;;;;;5112118;28;20444;-72
2023/11/26 00:39:16;;;;;;;13.95;4.90;;;5.80;84.10;;;;;;5112255;28;20719;-69
2023/11/26 00:41:44;;;;;;;17.15;6.38;;;5.80;85.40;;;;;;5111746;28;20383;-70
2023/11/26 00:44:09;;;;;;;17.00;5.20;;;5.60;85.70;;;;;;5111822;28;20415;-70
2023/11/26 00:46:35;;;;;;;16.77;6.77;;;5.50;91.10;;;;;;5111939;28;20376;-69
2023/11/26 00:49:05;;;;;;;17.30;5.70;;;5.50;91.90;;;;;;5111989;28;20411;-71
2023/11/26 00:51:31;;;;;;;19.33;7.30;;;5.40;94.80;;;;;;5111998;28;20368;-71
2023/11/26 00:53:56;;;;;;;20.50;6.60;;;5.40;95.30;;;;;;5111964;28;20974;-72
2023/11/26 00:56:22;;;;;;;17.67;6.13;;;5.30;97.60;;;;;;5111642;28;20762;-72
2023/11/26 00:58:47;;;;;;;18.67;6.80;;;5.70;92.90;;;;;;5111802;28;20800;-71
2023/11/26 01:01:14;;;;;;;15.33;7.03;;;5.60;85.60;;;;;;5111518;28;20789;-71
2023/11/26 01:03:40;;;;;;;16.20;7.22;;;5.40;91.10;;;;;;5111878;28;20399;-69
2023/11/26 01:06:05;;;;;;;21.77;7.23;;;5.30;95.10;;;;;;5111534;28;20882;-69
2023/11/26 01:08:31;;;;;;;19.50;6.53;;;5.30;97.80;;;;;;5111509;28;20467;-71
2023/11/26 01:10:57;;;;;;;16.58;5.75;;;5.20;99.60;;;;;;5111209;28;20373;-69
2023/11/26 01:13:22;;;;;;;18.13;6.60;;;5.20;99.40;;;;;;5111454;28;20433;-70
2023/11/26 01:15:48;;;;;;;13.27;5.05;;;5.10;99.90;;;;;;5111631;28;20878;-70
2023/11/26 01:18:14;;;;;;;17.35;6.40;;;5.40;96.50;;;;;;5111593;28;20381;-70
2023/11/26 01:20:39;;;;;;;14.88;5.95;;;5.30;92.40;;;;;;5111043;28;20433;-70
2023/11/26 01:23:05;;;;;;;16.90;5.20;;;5.30;92.60;;;;;;5110910;28;20383;-70
2023/11/26 01:25:30;;;;;;;16.40;6.70;;;5.40;91.20;;;;;;5111381;28;20422;-70
2023/11/26 01:27:56;;;;;;;16.67;5.20;;;5.40;89.80;;;;;;5111110;28;20388;-69
2023/11/26 01:30:21;;;;;;;12.77;5.40;;;5.40;87.90;;;;;;5110864;28;20517;-70
2023/11/26 01:32:47;;;;;;;20.40;5.55;;;5.40;88.20;;;;;;5111097;28;20387;-70
2023/11/26 01:35:13;;;;;;;16.45;5.43;;;5.60;84.20;;;;;;5111046;28;20400;-69
2023/11/26 01:37:39;;;;;;;15.85;5.43;;;5.70;82.10;;;;;;5110108;28;20460;-70
2023/11/26 01:40:08;;;;;;;21.38;6.50;;;5.40;82.00;;;;;;5110552;28;20455;-69
2023/11/26 01:42:34;;;;;;;19.67;6.75;;;4.90;88.30;;;;;;5110773;28;20383;-69
2023/11/26 01:45:00;;;;;;;18.70;6.90;;;4.60;96.10;;;;;;5110789;28;20381;-70
2023/11/26 01:47:25;;;;;;;21.63;6.97;;;4.50;99.90;;;;;;5111009;28;20483;-70
2023/11/26 01:49:51;;;;;;;17.95;6.97;;;4.50;99.90;;;;;;5110556;28;20460;-69
2023/11/26 01:52:18;;;;;;;18.73;7.00;;;4.60;99.90;;;;;;5110762;28;20824;-70
2023/11/26 01:54:43;;;;;;;22.30;7.47;;;4.50;99.90;;;;;;5110492;28;20824;-70
2023/11/26 01:57:11;;;;;;;19.57;9.00;;;4.40;99.90;;;;;;5110744;28;20381;-70
2023/11/26 01:59:39;;;;;;;13.85;6.40;;;4.40;99.90;;;;;;5110806;28;20402;-71
2023/11/26 02:02:04;;;;;;;23.07;8.10;;;4.50;99.90;;;;;;5111234;28;20394;-71
2023/11/26 02:04:30;;;;;;;18.17;7.50;;;4.50;99.90;;;;;;5112340;28;20931;-71
2023/11/26 02:06:56;;;;;;;20.50;8.25;;;4.60;99.90;;;;;;5110841;28;20429;-69
2023/11/26 02:09:22;;;;;;;26.10;7.70;;;4.70;99.90;;;;;;5110922;28;20388;-69
2023/11/26 02:11:48;;;;;;;18.65;7.57;;;4.70;99.90;;;;;;5110378;28;20368;-69
2023/11/26 02:14:15;;;;;;;14.98;6.50;;;4.90;99.90;;;;;;5110655;28;20780;-69
2023/11/26 02:16:46;;;;;;;22.65;7.47;;;5.00;99.90;;;;;;5110699;28;20381;-70
2023/11/26 02:19:25;;;;;;;19.88;7.63;;;5.10;99.90;;;;;;5111052;28;20383;-71
2023/11/26 02:21:52;;;;;;;23.10;7.88;;;4.90;99.90;;;;;;5111524;28;20727;-70
2023/11/26 02:24:25;;;;;;;35.75;8.10;;;4.80;99.90;;;;;;5110583;28;20369;-69
2023/11/26 02:26:50;;;;;;;19.45;8.25;;;4.90;99.90;;;;;;5110595;28;20375;-70
2023/11/26 02:29:16;;;;;;;20.57;7.30;;;4.90;99.90;;;;;;5110674;28;20376;-71
2023/11/26 02:31:41;;;;;;;23.30;8.00;;;4.80;99.90;;;;;;5110460;28;20387;-70
2023/11/26 02:34:07;;;;;;;21.15;6.20;;;5.10;99.90;;;;;;5110707;28;20417;-69
2023/11/26 02:36:32;;;;;;;17.43;5.90;;;5.50;92.20;;;;;;5110690;28;20372;-70
2023/11/26 02:38:58;;;;;;;21.27;7.20;;;5.60;84.20;;;;;;5092801;28;20946;-71
2023/11/26 02:41:25;;;;;;;20.93;8.33;;;5.40;86.20;;;;;;5111370;28;20464;-71
2023/11/26 02:43:50;;;;;;;21.35;7.07;;;5.10;90.50;;;;;;5111166;28;20430;-70
2023/11/26 02:46:16;;;;;;;16.50;7.50;;;4.90;96.90;;;;;;5111092;28;20376;-70
2023/11/26 02:48:41;;;;;;;24.17;9.10;;;4.80;97.70;;;;;;5114677;28;20419;-72
2023/11/26 02:51:07;;;;;;;21.00;6.80;;;4.70;99.90;;;;;;5116344;28;20380;-70
2023/11/26 02:53:33;;;;;;;15.70;6.67;;;4.80;98.00;;;;;;5115227;28;20387;-70
2023/11/26 02:55:59;;;;;;;23.17;6.90;;;4.60;98.80;;;;;;5114816;28;20392;-72
2023/11/26 02:58:24;;;;;;;22.63;7.13;;;4.60;99.90;;;;;;5115010;28;20913;-71
2023/11/26 03:00:51;;;;;;;22.70;7.05;;;4.60;99.60;;;;;;5114711;28;20465;-71
2023/11/26 03:03:19;;;;;;;21.20;6.82;;;4.40;99.90;;;;;;5114472;28;20373;-71
2023/11/26 03:05:50;;;;;;;21.08;7.80;;;4.50;99.90;;;;;;5114216;28;20446;-71
2023/11/26 03:08:21;;;;;;;22.90;7.13;;;4.20;99.90;;;;;;5113966;28;20376;-71
2023/11/26 03:13:32;;;;;;;26.90;8.30;;;3.90;99.90;;;;;;5114818;28;20453;-71
2023/11/26 03:15:57;;;;;;;19.52;7.50;;;3.80;99.90;;;;;;5113844;28;20442;-69
2023/11/26 03:18:23;;;;;;;32.42;8.90;;;3.70;99.90;;;;;;5095290;28;20943;-72
2023/11/26 03:20:52;;;;;;;28.05;8.55;;;3.80;99.90;;;;;;5113426;28;20734;-69
2023/11/26 03:23:19;;;;;;;22.75;7.68;;;3.80;99.90;;;;;;5113603;28;20465;-70
2023/11/26 03:25:45;;;;;;;18.08;7.10;;;3.90;99.90;;;;;;5113468;28;20851;-70
2023/11/26 03:28:11;;;;;;;23.10;8.20;;;3.90;99.90;;;;;;5113417;28;20471;-70
2023/11/26 03:30:36;;;;;;;24.02;7.82;;;3.80;99.90;;;;;;5113212;28;20770;-70
2023/11/26 03:33:02;;;;;;;25.13;8.10;;;3.80;99.90;;;;;;5113555;28;20376;-69
2023/11/26 03:35:28;;;;;;;22.77;6.97;;;3.70;99.90;;;;;;5113248;28;20396;-70
2023/11/26 03:37:54;;;;;;;22.52;8.15;;;3.70;99.90;;;;;;5113513;28;20377;-71
2023/11/26 03:40:20;;;;;;;24.40;7.80;;;3.80;99.90;;;;;;5094861;28;20455;-71
2023/11/26 03:42:46;;;;;;;24.50;8.38;;;3.60;99.90;;;;;;5113104;28;20910;-71
2023/11/26 03:45:12;;;;;;;25.23;8.15;;;3.50;99.90;;;;;;5113557;28;20885;-71
2023/11/26 03:47:38;;;;;;;26.20;9.00;;;3.50;99.90;;;;;;5112887;28;20380;-71
2023/11/26 03:50:09;;;;;;;23.88;9.20;;;3.50;99.90;;;;;;5112781;28;20740;-70
2023/11/26 03:52:35;;;;;;;29.20;9.02;;;3.50;99.90;;;;;;5094426;28;20399;-69
2023/11/26 03:55:02;;;;;;;22.50;8.05;;;3.40;99.90;;;;;;5112912;28;20392;-70
2023/11/26 03:57:28;;;;;;;23.23;8.80;;;3.50;99.90;;;;;;5113014;28;20380;-69
2023/11/26 03:59:53;;;;;;;24.47;8.90;;;3.50;99.90;;;;;;5112098;28;20935;-70
2023/11/26 04:02:19;;;;;;;27.90;8.60;;;3.70;99.90;;;;;;5112810;28;20650;-70
2023/11/26 04:04:46;;;;;;;29.33;9.97;;;3.60;99.90;;;;;;5113050;28;20391;-71
2023/11/26 04:07:11;;;;;;;23.42;8.70;;;3.50;99.90;;;;;;5113263;28;20493;-70
2023/11/26 04:09:37;;;;;;;27.92;9.15;;;3.50;99.90;;;;;;5112423;28;20448;-70
2023/11/26 04:12:03;;;;;;;20.30;8.60;;;3.60;99.90;;;;;;5112602;28;20457;-69
2023/11/26 04:14:31;;;;;;;22.60;9.60;;;3.70;99.90;;;;;;5112453;28;20384;-70
2023/11/26 04:16:56;;;;;;;26.73;9.20;;;3.80;99.90;;;;;;5112738;28;20456;-70
2023/11/26 04:19:22;;;;;;;21.55;8.88;;;3.80;99.90;;;;;;5112602;28;20475;-70
2023/11/26 04:21:47;;;;;;;26.20;10.23;;;3.90;99.90;;;;;;5112706;28;20376;-70
2023/11/26 04:24:13;;;;;;;25.33;9.48;;;4.00;99.90;;;;;;5112790;28;20372;-71
2023/11/26 04:26:39;;;;;;;25.93;10.10;;;4.00;99.90;;;;;;5112346;28;20451;-71
2023/11/26 04:29:05;;;;;;;25.00;10.52;;;4.00;99.90;;;;;;5112428;28;20400;-70
2023/11/26 04:31:31;;;;;;;32.40;11.10;;;4.00;99.90;;;;;;5112288;28;20404;-70
2023/11/26 04:33:57;;;;;;;31.30;11.10;;;4.00;99.90;;;;;;5112121;28;20415;-70
2023/11/26 04:36:23;;;;;;;25.60;10.52;;;4.00;99.90;;;;;;5093600;28;20432;-71
2023/11/26 04:38:48;;;;;;;26.27;10.53;;;4.10;99.90;;;;;;5111969;28;20463;-72
2023/11/26 04:41:14;;;;;;;33.67;13.00;;;4.20;99.90;;;;;;5112013;28;20471;-70
2023/11/26 04:43:40;;;;;;;28.52;11.32;;;4.20;99.90;;;;;;5111950;28;20404;-71
2023/11/26 04:46:05;;;;;;;24.92;12.25;;;4.20;99.90;;;;;;5111890;28;20940;-70
2023/11/26 04:48:31;;;;;;;28.63;10.95;;;4.20;99.90;;;;;;5111941;28;20377;-70
2023/11/26 04:50:56;;;;;;;29.55;12.80;;;4.10;99.90;;;;;;5111722;28;20415;-72
2023/11/26 04:53:25;;;;;;;34.05;13.20;;;4.20;99.90;;;;;;5111595;28;20878;-69
2023/11/26 04:55:52;;;;;;;31.02;12.95;;;4.20;99.90;;;;;;5093805;28;20773;-69
2023/11/26 04:58:18;;;;;;;31.20;13.55;;;4.10;99.90;;;;;;5111547;28;20369;-69
2023/11/26 05:00:45;;;;;;;31.50;14.95;;;4.20;99.90;;;;;;5111462;28;20377;-70
2023/11/26 05:03:11;;;;;;;31.90;15.38;;;4.20;99.90;;;;;;5111559;28;20912;-70
2023/11/26 05:05:37;;;;;;;28.30;13.07;;;4.20;99.90;;;;;;5111387;28;20392;-70
2023/11/26 05:08:04;;;;;;;37.50;14.90;;;4.30;99.90;;;;;;5111403;28;20792;-68
2023/11/26 05:10:31;;;;;;;31.13;14.00;;;4.40;99.90;;;;;;5111456;28;20473;-69
2023/11/26 05:12:56;;;;;;;30.30;14.90;;;4.50;99.90;;;;;;5110776;28;20380;-70
2023/11/26 05:15:22;;;;;;;33.83;18.15;;;4.60;99.90;;;;;;5111802;28;20469;-69
2023/11/26 05:17:49;;;;;;;29.02;15.15;;;4.60;99.90;;;;;;5111472;28;20866;-69
2023/11/26 05:20:15;;;;;;;33.35;15.60;;;4.80;99.90;;;;;;5111381;28;20742;-69
2023/11/26 05:22:40;;;;;;;34.83;15.30;;;4.70;99.90;;;;;;5111487;28;20380;-69
2023/11/26 05:25:07;;;;;;;28.90;14.32;;;4.70;99.90;;;;;;5093174;28;20498;-70
2023/11/26 05:27:33;;;;;;;29.45;14.90;;;4.90;99.90;;;;;;5111670;28;20384;-70
2023/11/26 05:30:01;;;;;;;28.85;15.18;;;4.90;99.90;;;;;;5111704;28;20383;-70
2023/11/26 05:32:28;;;;;;;39.88;19.20;;;4.80;99.90;;;;;;5111837;28;20795;-69
2023/11/26 05:34:54;;;;;;;34.90;16.20;;;4.70;99.90;;;;;;5111472;28;20518;-70
2023/11/26 05:37:20;;;;;;;27.75;14.55;;;4.70;99.90;;;;;;5112136;28;20727;-70
2023/11/26 05:39:45;;;;;;;32.17;14.90;;;4.90;99.90;;;;;;5111420;28;20376;-71
2023/11/26 05:42:13;;;;;;;33.97;15.67;;;4.90;98.70;;;;;;5111417;28;20409;-70
2023/11/26 05:44:38;;;;;;;25.52;14.45;;;4.60;99.90;;;;;;5113849;28;20388;-70
2023/11/26 05:47:04;;;;;;;37.28;15.27;;;4.50;99.90;;;;;;5118903;28;20373;-70
2023/11/26 05:49:29;;;;;;;27.77;14.98;;;4.50;99.90;;;;;;5117604;22;20458;-76
2023/11/26 05:51:58;;;;;;;28.50;15.15;;;4.50;99.90;;;;;;5089031;28;20372;-77
2023/11/26 05:54:24;;;;;;;32.22;15.07;;;4.60;99.90;;;;;;5090779;28;20387;-76
2023/11/26 05:56:50;;;;;;;37.67;17.60;;;4.80;99.90;;;;;;5082199;28;20384;-76
2023/11/26 05:59:16;;;;;;;29.42;15.27;;;4.60;99.90;;;;;;5074218;28;20435;-77
2023/11/26 06:01:42;;;;;;;29.55;15.15;;;4.50;99.90;;;;;;5072277;28;20387;-75
2023/11/26 06:04:08;;;;;;;32.90;16.10;;;4.60;99.90;;;;;;5071579;28;20372;-77
2023/11/26 06:06:33;;;;;;;31.67;14.88;;;4.50;99.90;;;;;;5071362;28;20392;-77
2023/11/26 06:08:59;;;;;;;37.13;15.07;;;4.50;99.90;;;;;;5074245;28;20384;-78
2023/11/26 06:11:25;;;;;;;31.95;15.30;;;4.40;99.90;;;;;;5075872;28;20446;-76
2023/11/26 06:13:50;;;;;;;28.85;15.93;;;4.40;99.90;;;;;;5074385;28;20731;-74
2023/11/26 06:16:16;;;;;;;34.30;15.97;;;4.50;99.90;;;;;;5072937;28;20495;-77
2023/11/26 06:18:42;;;;;;;32.33;17.10;;;4.50;99.90;;;;;;5073629;28;20876;-77
2023/11/26 06:21:07;;;;;;;39.47;16.77;;;4.50;99.90;;;;;;5076684;28;20383;-77
2023/11/26 06:23:33;;;;;;;32.77;16.13;;;4.60;99.90;;;;;;5073398;28;20415;-77
2023/11/26 06:25:59;;;;;;;36.63;17.50;;;4.70;99.90;;;;;;5076748;28;20444;-76
2023/11/26 06:28:25;;;;;;;38.78;19.33;;;4.80;99.90;;;;;;5074667;28;20384;-76
2023/11/26 06:30:51;;;;;;;40.65;19.00;;;4.70;99.90;;;;;;5075456;28;20392;-77
2023/11/26 06:33:16;;;;;;;38.33;19.40;;;4.70;99.90;;;;;;5076779;28;20379;-76
2023/11/26 06:35:43;;;;;;;35.33;19.90;;;4.70;99.90;;;;;;5079562;28;20407;-77
2023/11/26 06:38:09;;;;;;;39.45;21.67;;;4.70;99.90;;;;;;5077958;28;20390;-77
2023/11/26 06:40:36;;;;;;;43.30;22.17;;;4.50;99.90;;;;;;5075681;28;20408;-77
2023/11/26 06:43:02;;;;;;;40.92;21.48;;;4.70;99.90;;;;;;5074821;28;20376;-77
2023/11/26 06:45:27;;;;;;;47.10;22.93;;;4.70;99.90;;;;;;5077567;28;20432;-77
2023/11/26 06:47:53;;;;;;;45.97;22.50;;;4.60;99.90;;;;;;5080543;28;20383;-77
2023/11/26 06:50:19;;;;;;;42.43;21.37;;;4.50;99.90;;;;;;5103865;28;20388;-77
2023/11/26 06:52:44;;;;;;;44.22;23.27;;;4.50;99.90;;;;;;5116229;28;20430;-77
2023/11/26 06:55:11;;;;;;;39.85;22.63;;;4.50;99.90;;;;;;5114983;28;20400;-77
2023/11/26 06:57:36;;;;;;;42.05;21.52;;;4.40;99.90;;;;;;5117171;28;20388;-77
2023/11/26 07:00:03;;;;;;;37.10;20.97;;;4.60;99.90;;;;;;5117953;28;20392;-77
2023/11/26 07:02:29;;;;;;;43.72;22.70;;;4.70;99.90;;;;;;5121867;28;20384;-76
2023/11/26 07:04:55;;;;;;;38.53;22.00;;;4.60;99.90;;;;;;5116697;28;20384;-76
2023/11/26 07:07:21;;;;;;;42.03;23.23;;;4.60;99.90;;;;;;5114695;28;20441;-76
2023/11/26 07:09:47;;;;;;;40.92;22.02;;;4.60;99.90;;;;;;5114139;28;20392;-76
2023/11/26 07:12:13;;;;;;;43.80;23.30;;;4.60;99.90;;;;;;5114355;28;20371;-76
2023/11/26 07:14:38;;;;;;;48.40;23.20;;;4.70;99.90;;;;;;5114119;28;20445;-77
2023/11/26 07:17:05;;;;;;;41.05;22.13;;;4.90;99.90;;;;;;5114519;28;20687;-77
2023/11/26 07:19:31;;;;;;;41.03;24.08;;;4.90;99.90;;;;;;5114452;28;20407;-77
2023/11/26 07:21:56;;;;;;;44.42;24.30;;;5.00;98.80;;;;;;5113982;28;20826;-75
2023/11/26 07:24:22;;;;;;;48.08;25.65;;;4.90;99.00;;;;;;5113699;28;20382;-76
2023/11/26 07:26:48;;;;;;;50.73;25.20;;;4.80;99.90;;;;;;5113860;28;20372;-76
2023/11/26 07:29:14;;;;;;;46.75;24.80;;;4.90;99.90;;;;;;5114846;28;20874;-77
2023/11/26 07:31:39;;;;;;;46.70;25.37;;;4.80;99.90;;;;;;5113973;28;20409;-77
2023/11/26 07:34:05;;;;;;;51.07;26.40;;;4.90;99.90;;;;;;5113727;28;20407;-76
2023/11/26 07:36:32;;;;;;;57.50;25.57;;;4.90;99.90;;;;;;5113930;28;20487;-78
2023/11/26 07:38:58;;;;;;;54.72;25.85;;;5.10;99.90;;;;;;5108614;28;20398;-73
2023/11/26 07:41:25;;;;;;;53.45;26.23;;;5.20;97.00;;;;;;5107369;28;20461;-74
2023/11/26 07:43:51;;;;;;;49.10;26.77;;;5.00;99.20;;;;;;5101023;28;20386;-75
2023/11/26 07:46:18;;;;;;;60.90;29.43;;;5.00;99.90;;;;;;5101440;28;20392;-75
2023/11/26 07:48:45;;;;;;;52.28;26.42;;;5.00;99.90;;;;;;5094873;28;20400;-76
2023/11/26 07:51:12;;;;;;;53.08;26.90;;;5.10;99.90;;;;;;5097129;28;20398;-76
2023/11/26 07:53:39;;;;;;;52.65;26.80;;;5.10;99.90;;;;;;5099286;28;20494;-77
2023/11/26 07:56:05;;;;;;;53.70;27.42;;;5.20;99.90;;;;;;5111986;28;20404;-77
2023/11/26 07:58:34;;;;;;;53.72;28.13;;;5.20;99.90;;;;;;5111475;28;20395;-77
2023/11/26 08:01:05;;;;;;;55.50;27.27;;;5.30;99.90;;;;;;5106511;28;20779;-78
2023/11/26 08:03:34;;;;;;;51.28;28.65;;;5.30;99.90;;;;;;5111743;28;20528;-78
2023/11/26 08:06:01;;;;;;;53.75;28.95;;;5.30;99.90;;;;;;5111116;28;20388;-76
2023/11/26 08:08:34;;;;;;;56.23;27.87;;;5.30;99.90;;;;;;5110811;28;20387;-76
2023/11/26 08:11:01;;;;;;;51.03;26.83;;;5.50;99.90;;;;;;5092809;28;20418;-75
2023/11/26 08:13:28;;;;;;;54.05;26.65;;;5.60;96.50;;;;;;5094258;28;20932;-77
2023/11/26 08:15:57;;;;;;;58.15;27.27;;;5.80;92.30;;;;;;5114067;28;20400;-76
2023/11/26 08:18:24;;;;;;;47.13;24.98;;;5.70;93.50;;;;;;5093116;28;20399;-76
2023/11/26 08:20:50;;;;;;;60.22;27.23;;;5.80;94.00;;;;;;5112307;28;20483;-77
2023/11/26 08:23:15;;;;;;;58.33;27.20;;;5.90;91.80;;;;;;5100027;28;20404;-77
2023/11/26 08:25:43;;;;;;;46.50;25.90;;;5.90;92.50;;;;;;5108244;28;20435;-77
2023/11/26 08:28:09;;;;;;;63.17;27.55;;;6.00;90.90;;;;;;5097291;28;20431;-77
2023/11/26 08:30:41;;;;;;;51.83;25.95;;;5.90;90.50;;;;;;5092916;28;20374;-77
2023/11/26 08:33:07;;;;;;;47.15;25.67;;;6.20;86.60;;;;;;5095092;28;20825;-77
2023/11/26 08:35:34;;;;;;;50.65;25.63;;;6.20;86.50;;;;;;5101541;28;20405;-75
2023/11/26 08:38:05;;;;;;;47.92;24.75;;;6.30;83.60;;;;;;5099471;28;20382;-76
2023/11/26 08:40:33;;;;;;;48.42;24.90;;;6.40;83.00;;;;;;5104042;28;20399;-76
2023/11/26 08:43:04;;;;;;;49.88;26.20;;;6.50;81.20;;;;;;5108482;28;20385;-74
2023/11/26 08:45:32;;;;;;;44.05;23.15;;;6.40;82.50;;;;;;5133789;28;20369;-75
2023/11/26 08:47:58;;;;;;;44.63;23.42;;;6.70;76.30;;;;;;5122483;28;20490;-76
2023/11/26 08:50:24;;;;;;;47.42;23.48;;;6.50;79.60;;;;;;5095024;28;20763;-76
2023/11/26 08:52:53;;;;;;;50.35;23.83;;;6.80;75.20;;;;;;5084458;28;20391;-76
2023/11/26 08:55:20;;;;;;;41.97;22.75;;;6.60;78.00;;;;;;5106146;28;20546;-76
2023/11/26 08:57:46;;;;;;;42.30;22.60;;;6.70;78.90;;;;;;5080332;28;20417;-76
2023/11/26 09:00:12;;;;;;;41.90;20.60;;;6.80;75.80;;;;;;5102193;28;20389;-76
2023/11/26 09:02:38;;;;;;;39.38;20.13;;;7.10;70.50;;;;;;5111556;28;20406;-75
2023/11/26 09:05:08;;;;;;;39.43;21.07;;;7.10;70.50;;;;;;5116368;28;20513;-76
2023/11/26 09:07:46;;;;;;;37.97;19.80;;;7.00;71.40;;;;;;5115540;28;20442;-77
2023/11/26 09:10:13;;;;;;;39.13;19.60;;;7.10;70.30;;;;;;5116596;28;20395;-77
2023/11/26 09:12:39;;;;;;;36.67;20.15;;;7.20;68.10;;;;;;5114236;28;20388;-76
2023/11/26 09:15:10;;;;;;;35.27;19.47;;;7.10;70.50;;;;;;5100180;28;20397;-77
2023/11/26 09:17:37;;;;;;;39.03;19.80;;;7.20;69.60;;;;;;5081815;28;20434;-77
2023/11/26 09:20:03;;;;;;;42.13;19.80;;;7.20;68.40;;;;;;5121980;28;20476;-77
2023/11/26 09:22:30;;;;;;;40.90;19.65;;;7.20;69.30;;;;;;5113242;28;20377;-78
2023/11/26 09:24:56;;;;;;;34.25;19.88;;;7.20;70.30;;;;;;5118075;28;20453;-76
2023/11/26 09:27:21;;;;;;;40.05;21.50;;;7.30;68.90;;;;;;5100001;28;20382;-74
2023/11/26 09:29:47;;;;;;;39.17;19.30;;;7.30;69.00;;;;;;5099834;28;20395;-76
2023/11/26 09:32:13;;;;;;;41.42;20.45;;;7.20;72.30;;;;;;5096561;28;20390;-77
2023/11/26 09:34:40;;;;;;;39.70;20.50;;;7.20;73.90;;;;;;5116551;28;20450;-76
2023/11/26 09:37:05;;;;;;;39.60;21.07;;;7.20;73.90;;;;;;5119670;28;20396;-77
2023/11/26 09:39:35;;;;;;;35.58;20.08;;;7.30;72.60;;;;;;5113025;28;20854;-76
2023/11/26 09:42:02;;;;;;;43.47;21.03;;;7.40;74.50;;;;;;5107922;28;20447;-76
2023/11/26 09:44:28;;;;;;;42.58;20.73;;;7.70;68.60;;;;;;5073589;28;20900;-77
2023/11/26 09:46:54;;;;;;;41.87;21.13;;;7.40;69.90;;;;;;5091244;28;20830;-74
2023/11/26 09:49:19;;;;;;;41.15;20.50;;;7.30;73.70;;;;;;5093045;28;20389;-76
2023/11/26 09:51:52;;;;;;;36.65;19.50;;;7.60;69.80;;;;;;5114387;28;20449;-77
2023/11/26 09:54:22;;;;;;;39.40;20.17;;;7.90;65.60;;;;;;5113127;28;20436;-76
2023/11/26 09:56:52;;;;;;;42.10;22.02;;;7.90;66.50;;;;;;5110359;28;20762;-75
2023/11/26 09:59:26;;;;;;;40.10;20.70;;;7.90;66.30;;;;;;5109544;28;20449;-77
2023/11/26 10:01:52;;;;;;;39.97;20.58;;;8.00;64.80;;;;;;5100205;28;20903;-77
2023/11/26 10:04:20;;;;;;;36.05;19.38;;;8.20;63.70;;;;;;5091354;28;20378;-76
2023/11/26 10:06:54;;;;;;;40.40;21.17;;;8.30;60.10;;;;;;5091786;28;20385;-76
2023/11/26 10:09:20;;;;;;;36.75;19.90;;;8.30;62.40;;;;;;5110952;28;20388;-75
2023/11/26 10:11:46;;;;;;;40.58;20.35;;;8.30;62.80;;;;;;5113478;28;20444;-76
2023/11/26 10:14:20;;;;;;;37.00;19.02;;;8.60;59.40;;;;;;5104767;28;20400;-75
2023/11/26 10:16:46;;;;;;;36.53;20.63;;;8.60;60.20;;;;;;5093726;28;20457;-79
2023/11/26 10:19:32;;;;;;;40.00;20.77;;;8.60;59.20;;;;;;5096381;28;20388;-78
2023/11/26 10:21:59;;;;;;;36.17;19.55;;;8.70;59.10;;;;;;5112768;28;20376;-80
2023/11/26 10:24:27;;;;;;;36.15;19.88;;;8.60;58.70;;;;;;5096999;28;20446;-75
2023/11/26 10:26:54;;;;;;;41.70;21.30;;;8.60;59.40;;;;;;5114110;28;20369;-77
2023/11/26 10:29:23;;;;;;;36.75;20.48;;;8.50;60.40;;;;;;5107759;28;20388;-77
2023/11/26 10:32:01;;;;;;;39.17;19.73;;;8.50;59.70;;;;;;5095851;28;20498;-76
2023/11/26 10:34:30;;;;;;;40.10;19.17;;;8.70;58.90;;;;;;5107829;28;20909;-77
2023/11/26 10:36:55;;;;;;;34.13;18.05;;;8.80;57.80;;;;;;5108587;28;20387;-75
2023/11/26 10:39:22;;;;;;;37.67;18.58;;;8.90;56.40;;;;;;5091735;28;20381;-75
2023/11/26 10:41:49;;;;;;;31.67;18.48;;;8.80;58.20;;;;;;5092036;28;20374;-76
2023/11/26 10:44:15;;;;;;;32.60;18.10;;;8.80;58.40;;;;;;5092273;28;20385;-76
2023/11/26 10:46:44;;;;;;;37.67;18.10;;;9.10;56.60;;;;;;5091095;28;20405;-76
2023/11/26 10:49:29;;;;;;;33.70;16.30;;;9.00;55.80;;;;;;5104002;28;20396;-78
2023/11/26 10:52:10;;;;;;;33.72;17.92;;;9.10;55.70;;;;;;5092410;28;20891;-75
2023/11/26 10:55:02;;;;;;;36.35;19.13;;;9.00;56.50;;;;;;5072536;28;20378;-75
2023/11/26 10:57:37;;;;;;;40.75;19.63;;;9.20;55.40;;;;;;5092100;28;20400;-74
2023/11/26 11:00:07;;;;;;;35.58;18.35;;;9.00;55.20;;;;;;5110348;28;20412;-74
2023/11/26 11:02:36;;;;;;;30.90;18.65;;;9.00;57.80;;;;;;5092602;28;20384;-75
2023/11/26 11:05:06;;;;;;;32.65;18.70;;;9.10;56.10;;;;;;5091915;28;20392;-74
2023/11/26 11:07:34;;;;;;;33.47;17.70;;;9.00;55.30;;;;;;5107237;28;20441;-75
2023/11/26 11:10:36;;;;;;;35.25;19.10;;;9.00;56.30;;;;;;5110513;28;20388;-74
2023/11/26 11:13:12;;;;;;;32.77;18.23;;;9.00;56.70;;;;;;5102977;28;20369;-73
2023/11/26 11:15:43;;;;;;;31.23;19.20;;;8.80;57.00;;;;;;5114584;28;20416;-75
2023/11/26 11:18:26;;;;;;;36.92;19.65;;;8.70;59.00;;;;;;5114208;28;20384;-74
2023/11/26 11:21:09;;;;;;;31.45;18.42;;;8.70;58.90;;;;;;5115113;28;20368;-75
2023/11/26 11:23:49;;;;;;;38.07;20.20;;;8.70;60.60;;;;;;5117790;28;20742;-76
2023/11/26 11:26:17;;;;;;;37.60;19.88;;;8.80;60.20;;;;;;5114281;28;20791;-73
2023/11/26 11:28:47;;;;;;;34.42;20.60;;;8.80;60.70;;;;;;5113715;28;20501;-75
2023/11/26 11:31:18;;;;;;;37.55;19.58;;;8.90;59.20;;;;;;5114030;28;20383;-76
2023/11/26 11:33:56;;;;;;;36.28;19.88;;;8.90;59.30;;;;;;5110689;28;20905;-74
2023/11/26 11:36:40;;;;;;;39.63;20.70;;;8.80;60.20;;;;;;5129198;28;20392;-73
2023/11/26 11:39:06;;;;;;;35.05;20.65;;;8.90;59.20;;;;;;5108888;28;20388;-73
2023/11/26 11:41:55;;;;;;;35.80;18.90;;;8.90;58.80;;;;;;5114872;28;20463;-73
2023/11/26 11:44:34;;;;;;;35.92;19.02;;;8.80;58.70;;;;;;5119784;28;20831;-74
2023/11/26 11:47:04;;;;;;;35.45;19.13;;;8.80;59.10;;;;;;5132849;28;20550;-74
2023/11/26 11:49:45;;;;;;;37.45;20.27;;;8.70;60.20;;;;;;5125272;22;20392;-71
2023/11/26 11:52:14;;;;;;;37.27;20.33;;;8.80;60.80;;;;;;5114296;28;20513;-73
2023/11/26 11:54:55;;;;;;;37.38;19.15;;;8.90;58.80;;;;;;5097735;28;20378;-72
2023/11/26 11:57:28;;;;;;;44.33;20.60;;;9.10;57.70;;;;;;5101995;28;20388;-71
2023/11/26 11:59:55;;;;;;;35.30;20.55;;;8.90;59.10;;;;;;5112525;28;20376;-71
2023/11/26 12:02:23;;;;;;;32.33;17.52;;;8.90;58.70;;;;;;5112994;28;20742;-73
2023/11/26 12:04:50;;;;;;;37.55;19.70;;;8.90;60.00;;;;;;5112575;28;20377;-72
2023/11/26 12:07:17;;;;;;;34.25;20.25;;;8.80;59.80;;;;;;5113194;28;20880;-72
2023/11/26 12:09:44;;;;;;;34.40;19.33;;;8.80;61.70;;;;;;5112921;28;20892;-72
2023/11/26 12:12:10;;;;;;;37.97;19.00;;;8.90;60.40;;;;;;5112706;28;20380;-73
2023/11/26 12:14:37;;;;;;;38.05;20.25;;;9.00;59.80;;;;;;5112555;28;20377;-73
2023/11/26 12:17:07;;;;;;;34.28;19.35;;;9.00;59.70;;;;;;5112730;28;20372;-72
2023/11/26 12:19:40;;;;;;;28.88;19.08;;;9.00;60.90;;;;;;5112777;28;20387;-72
2023/11/26 12:22:07;;;;;;;34.63;19.73;;;9.20;58.20;;;;;;5111989;28;20781;-73
2023/11/26 12:24:34;;;;;;;40.17;19.83;;;9.30;57.60;;;;;;5112710;28;20791;-72
2023/11/26 12:26:59;;;;;;;40.45;20.65;;;9.30;56.80;;;;;;5112247;28;20373;-71
2023/11/26 12:29:30;;;;;;;34.00;18.83;;;9.20;57.40;;;;;;5112267;28;20369;-73
2023/11/26 12:32:05;;;;;;;33.07;19.50;;;9.30;57.60;;;;;;5115612;28;20408;-72
2023/11/26 12:34:37;;;;;;;31.70;19.10;;;9.40;58.10;;;;;;5077844;28;20424;-71
2023/11/26 12:37:04;;;;;;;35.45;18.48;;;9.30;59.80;;;;;;5112051;28;20874;-71
2023/11/26 12:39:31;;;;;;;32.58;18.85;;;9.50;57.30;;;;;;5093832;28;20870;-72
2023/11/26 12:41:56;;;;;;;34.83;17.57;;;9.70;55.10;;;;;;5093702;28;20407;-71
2023/11/26 12:44:23;;;;;;;33.53;18.38;;;9.70;54.20;;;;;;5111900;28;20376;-71